Time;durP1;ratioP1;P1;durP2;ratioP2;P2;SDS_P1;SDS_P2;PMS_P1;PMS_P2;Temp;Humidity;BMP_temperature;BMP_pressure;BME280_temperature;BME280_humidity;BME280_pressure;Samples;Min_cycle;Max_cycle;Signal;HPM_P1;HPM_P2
2021/12/28 00:00:09;;;;;;;66.93;35.33;;;179.20;2252.80;;;;;;5095291;28;20474;-62
2021/12/28 00:02:34;;;;;;;;;;;179.40;2252.80;;;;;;5095213;28;20024;-62
2021/12/28 00:05:00;;;;;;;81.85;36.03;;;154.30;2252.80;;;;;;5095478;28;19919;-63
2021/12/28 00:07:26;;;;;;;73.57;36.40;;;;;;;;;;5095248;28;20030;-63
2021/12/28 00:09:52;;;;;;;75.28;34.70;;;;;;;;;;5095020;28;20115;-62
2021/12/28 00:12:19;;;;;;;89.43;39.03;;;;;;;;;;5095099;28;20028;-60
2021/12/28 00:15:04;;;;;;;89.88;48.22;;;;;;;;;;5095042;28;20042;-61
2021/12/28 00:20:14;;;;;;;86.47;35.22;;;179.30;2252.80;;;;;;5095196;28;20034;-60
2021/12/28 00:22:40;;;;;;;71.82;37.00;;;154.50;2252.80;;;;;;5094862;28;20064;-60
2021/12/28 00:25:06;;;;;;;84.57;34.92;;;154.30;2252.80;;;;;;5094511;28;20094;-61
2021/12/28 00:27:32;;;;;;;72.95;35.30;;;154.30;2252.80;;;;;;5094681;28;20112;-62
2021/12/28 00:29:58;;;;;;;62.70;32.70;;;179.20;2252.80;;;;;;5094810;28;20103;-61
2021/12/28 00:32:24;;;;;;;63.35;30.60;;;179.40;2252.80;;;;;;5094610;28;20024;-61
2021/12/28 00:34:50;;;;;;;65.97;29.45;;;179.40;2252.80;;;;;;5094632;28;20024;-60
2021/12/28 00:37:16;;;;;;;58.65;31.88;;;179.50;2252.80;;;;;;5094524;28;20020;-60
2021/12/28 00:39:42;;;;;;;63.67;31.08;;;179.60;2252.80;;;;;;5094566;28;20107;-66
2021/12/28 00:42:08;;;;;;;65.55;32.53;;;179.40;2252.80;;;;;;5094574;28;20024;-60
2021/12/28 00:44:34;;;;;;;85.28;31.77;;;179.70;2252.80;;;;;;5094136;28;20082;-63
2021/12/28 00:47:00;;;;;;;78.55;37.15;;;179.40;2252.80;;;;;;5094555;28;20394;-66
2021/12/28 00:49:26;;;;;;;79.63;35.60;;;179.30;2252.80;;;;;;5094326;28;20024;-60
2021/12/28 00:51:52;;;;;;;77.57;33.83;;;179.30;2252.80;;;;;;5094613;28;20173;-65
2021/12/28 00:54:18;;;;;;;71.53;31.85;;;179.30;2252.80;;;;;;5094353;28;20095;-60
2021/12/28 00:56:44;;;;;;;88.38;34.85;;;154.50;2252.80;;;;;;5090187;28;20032;-67
2021/12/28 00:59:10;;;;;;;79.72;34.17;;;154.50;2252.80;;;;;;5094410;28;20056;-64
2021/12/28 01:01:36;;;;;;;84.93;35.92;;;179.20;2252.80;;;;;;5094397;28;20047;-62
2021/12/28 01:04:01;;;;;;;84.05;36.55;;;154.50;2252.80;;;;;;5092261;28;20115;-60
2021/12/28 01:06:28;;;;;;;86.38;35.63;;;;;;;;;;5073922;28;20047;-59
2021/12/28 01:08:54;;;;;;;85.57;35.72;;;;;;;;;;5093477;28;20033;-64
2021/12/28 01:11:20;;;;;;;83.13;38.38;;;;;;;;;;5094022;28;20024;-66
2021/12/28 01:13:46;;;;;;;79.47;39.80;;;179.20;2252.80;;;;;;5092934;28;20035;-61
2021/12/28 01:16:14;;;;;;;82.68;36.92;;;179.20;2252.80;;;;;;5093614;28;20024;-62
2021/12/28 01:18:41;;;;;;;83.45;40.13;;;179.20;2252.80;;;;;;5093797;28;20052;-65
2021/12/28 01:21:07;;;;;;;74.43;38.10;;;154.50;2252.80;;;;;;5093741;28;20073;-66
2021/12/28 01:23:34;;;;;;;80.95;35.45;;;179.40;2252.80;;;;;;5075498;28;20016;-65
2021/12/28 01:25:59;;;;;;;89.57;41.17;;;179.40;2252.80;;;;;;5093380;28;20051;-63
2021/12/28 01:28:25;;;;;;;88.05;39.97;;;154.50;2252.80;;;;;;5093377;28;20024;-64
2021/12/28 01:30:51;;;;;;;77.80;36.63;;;154.50;2252.80;;;;;;5093562;28;20028;-61
2021/12/28 01:33:17;;;;;;;74.57;37.30;;;154.50;2252.80;;;;;;5093346;28;20382;-64
2021/12/28 01:35:43;;;;;;;80.38;34.72;;;154.50;2252.80;;;;;;5093389;28;20028;-61
2021/12/28 01:38:09;;;;;;;74.05;35.28;;;154.50;2252.80;;;;;;5093274;28;20020;-60
2021/12/28 01:40:39;;;;;;;72.88;35.35;;;179.30;2252.80;;;;;;5093405;28;20032;-60
2021/12/28 01:43:11;;;;;;;74.80;35.50;;;179.40;2252.80;;;;;;5093169;28;20060;-66
2021/12/28 01:45:56;;;;;;;80.68;37.67;;;179.40;2252.80;;;;;;5092958;28;20043;-61
2021/12/28 01:48:32;;;;;;;86.18;43.58;;;179.20;2252.80;;;;;;5093227;28;20101;-60
2021/12/28 01:51:02;;;;;;;92.07;39.17;;;179.40;2252.80;;;;;;5093152;28;20028;-64
2021/12/28 01:53:28;;;;;;;82.93;37.35;;;179.30;2252.80;;;;;;5093296;28;20027;-64
2021/12/28 01:55:58;;;;;;;65.07;32.78;;;179.30;2252.80;;;;;;5093119;28;20024;-67
2021/12/28 01:58:25;;;;;;;75.78;33.78;;;;;;;;;;5092929;28;20103;-64
2021/12/28 02:00:52;;;;;;;69.80;32.38;;;154.20;2252.80;;;;;;5093026;28;20028;-65
2021/12/28 02:03:20;;;;;;;73.28;32.15;;;154.30;2252.80;;;;;;5083657;28;20496;-62
2021/12/28 02:05:47;;;;;;;64.68;31.60;;;154.10;2252.80;;;;;;5072693;28;20043;-62
2021/12/28 02:08:14;;;;;;;79.07;33.35;;;154.00;2252.80;;;;;;5072718;28;20304;-64
2021/12/28 02:10:45;;;;;;;69.03;33.15;;;154.00;2252.80;;;;;;5072430;28;20028;-64
2021/12/28 02:13:12;;;;;;;61.58;31.65;;;154.00;2252.80;;;;;;5072778;28;20048;-60
2021/12/28 02:15:38;;;;;;;74.22;32.97;;;154.30;2252.80;;;;;;5072257;28;20441;-63
2021/12/28 02:18:06;;;;;;;67.10;32.40;;;154.10;2252.80;;;;;;5072313;28;20024;-64
2021/12/28 02:20:33;;;;;;;75.43;35.13;;;153.80;2252.80;;;;;;5072664;28;20029;-62
2021/12/28 02:22:59;;;;;;;72.35;31.92;;;;;;;;;;5072688;28;20020;-65
2021/12/28 02:25:25;;;;;;;68.82;33.17;;;;;;;;;;5072147;28;20048;-66
2021/12/28 02:27:51;;;;;;;59.50;30.58;;;;;;;;;;5072543;28;20024;-63
2021/12/28 02:30:20;;;;;;;63.33;30.67;;;153.90;2252.80;;;;;;5072297;28;20050;-65
2021/12/28 02:32:48;;;;;;;53.65;27.70;;;154.10;2252.80;;;;;;5086212;28;20127;-63
2021/12/28 02:35:23;;;;;;;51.40;25.90;;;154.40;2252.80;;;;;;5072541;28;20028;-65
2021/12/28 02:37:50;;;;;;;51.05;25.77;;;154.20;2252.80;;;;;;5072672;28;20043;-65
2021/12/28 02:40:19;;;;;;;52.33;26.77;;;154.10;2252.80;;;;;;5072296;28;20471;-64
2021/12/28 02:42:45;;;;;;;69.80;28.65;;;154.00;2252.80;;;;;;5072435;28;20052;-66
2021/12/28 02:45:15;;;;;;;68.20;29.77;;;153.90;2252.80;;;;;;5072127;28;20482;-63
2021/12/28 02:47:43;;;;;;;60.30;31.02;;;153.90;2252.80;;;;;;5072164;28;20501;-63
2021/12/28 02:50:13;;;;;;;62.63;30.92;;;154.10;2252.80;;;;;;5053876;28;20426;-66
2021/12/28 02:52:40;;;;;;;66.68;31.98;;;154.30;2252.80;;;;;;5072361;28;20119;-65
2021/12/28 02:55:08;;;;;;;87.68;32.53;;;154.30;2252.80;;;;;;5072293;28;20033;-65
2021/12/28 02:57:34;;;;;;;72.53;35.08;;;154.00;2252.80;;;;;;5072330;28;20056;-67
2021/12/28 03:00:01;;;;;;;81.70;34.70;;;154.20;2252.80;;;;;;5072019;28;20078;-65
2021/12/28 03:02:27;;;;;;;96.03;34.17;;;154.00;2252.80;;;;;;5073951;28;20078;-65
2021/12/28 03:04:53;;;;;;;65.70;30.83;;;154.10;2252.80;;;;;;5092478;28;20020;-64
2021/12/28 03:07:19;;;;;;;75.53;32.63;;;154.00;2252.80;;;;;;5092618;28;20098;-64
2021/12/28 03:09:45;;;;;;;72.13;32.05;;;;;;;;;;5092432;28;20440;-64
2021/12/28 03:12:12;;;;;;;81.63;29.17;;;;;;;;;;5092343;28;20063;-61
2021/12/28 03:14:38;;;;;;;63.20;30.67;;;153.80;2252.80;;;;;;5092267;28;20013;-64
2021/12/28 03:17:05;;;;;;;78.38;27.38;;;;;;;;;;5091707;28;20028;-66
2021/12/28 03:19:31;;;;;;;66.15;28.88;;;;;;;;;;5092363;28;20028;-66
2021/12/28 03:21:58;;;;;;;65.60;32.45;;;128.60;2252.80;;;;;;5092361;28;20067;-65
2021/12/28 03:24:25;;;;;;;61.85;27.15;;;128.50;2252.80;;;;;;5091764;28;20055;-66
2021/12/28 03:26:51;;;;;;;71.32;28.77;;;128.50;2252.80;;;;;;5092216;28;20050;-61
2021/12/28 03:29:17;;;;;;;66.68;25.83;;;128.50;2252.80;;;;;;5092195;28;20084;-62
2021/12/28 03:31:43;;;;;;;76.10;27.40;;;128.40;2252.80;;;;;;5092142;28;20020;-63
2021/12/28 03:34:08;;;;;;;55.30;24.70;;;128.50;2252.80;;;;;;5076287;28;20488;-60
2021/12/28 03:36:35;;;;;;;48.25;22.85;;;128.50;2252.80;;;;;;5072158;28;20013;-63
2021/12/28 03:39:01;;;;;;;52.97;23.23;;;128.80;2252.80;;;;;;5076238;28;20020;-64
2021/12/28 03:41:30;;;;;;;43.72;22.77;;;128.90;2252.80;;;;;;5075497;28;20016;-66
2021/12/28 03:43:57;;;;;;;61.00;26.65;;;128.90;2252.80;;;;;;5075417;28;20042;-63
2021/12/28 03:46:25;;;;;;;44.72;23.48;;;153.60;2252.80;;;;;;5074908;28;20441;-63
2021/12/28 03:48:51;;;;;;;67.30;25.33;;;153.60;2252.80;;;;;;5075498;28;20024;-66
2021/12/28 03:51:17;;;;;;;67.90;30.35;;;128.90;2252.80;;;;;;5075495;28;20052;-61
2021/12/28 03:53:44;;;;;;;56.05;26.00;;;128.90;2252.80;;;;;;5075257;28;20052;-65
2021/12/28 03:56:10;;;;;;;60.33;22.95;;;128.70;2252.80;;;;;;5075231;28;20405;-65
2021/12/28 03:58:40;;;;;;;53.70;23.92;;;128.80;2252.80;;;;;;5076277;28;20538;-69
2021/12/28 04:01:08;;;;;;;46.22;23.25;;;128.80;2252.80;;;;;;5082212;28;20095;-68
2021/12/28 04:03:34;;;;;;;57.03;26.50;;;128.90;2252.80;;;;;;5095835;28;20401;-61
2021/12/28 04:06:07;;;;;;;42.15;22.23;;;128.90;2252.80;;;;;;5076877;28;20402;-66
2021/12/28 04:08:33;;;;;;;53.88;23.17;;;153.60;2252.80;;;;;;5095094;28;20035;-65
2021/12/28 04:11:14;;;;;;;48.40;24.05;;;153.60;2252.80;;;;;;5095269;28;20028;-63
2021/12/28 04:13:41;;;;;;;64.00;23.48;;;128.90;2252.80;;;;;;5095004;28;20081;-64
2021/12/28 04:16:08;;;;;;;43.28;22.83;;;153.60;2252.80;;;;;;5094876;28;20028;-65
2021/12/28 04:18:33;;;;;;;54.22;24.77;;;153.80;2252.80;;;;;;5094849;28;20035;-64
2021/12/28 04:20:59;;;;;;;45.80;23.17;;;153.80;2252.80;;;;;;5095004;28;20374;-67
2021/12/28 04:23:25;;;;;;;37.75;21.85;;;153.90;2252.80;;;;;;5095294;28;20103;-65
2021/12/28 04:25:51;;;;;;;47.60;21.63;;;153.70;2252.80;;;;;;5094545;28;20050;-66
2021/12/28 04:28:17;;;;;;;48.17;23.90;;;153.60;2252.80;;;;;;5094622;28;20024;-64
2021/12/28 04:30:42;;;;;;;43.20;22.20;;;128.90;2252.80;;;;;;5094384;28;20055;-64
2021/12/28 04:33:08;;;;;;;36.35;21.33;;;153.70;2252.80;;;;;;5094850;28;20099;-64
2021/12/28 04:35:34;;;;;;;37.40;20.40;;;153.90;2252.80;;;;;;5094829;28;20020;-64
2021/12/28 04:38:00;;;;;;;38.33;21.38;;;153.90;2252.80;;;;;;5094399;28;20385;-62
2021/12/28 04:40:30;;;;;;;36.28;19.67;;;154.00;2252.80;;;;;;5094997;28;20032;-68
2021/12/28 04:42:56;;;;;;;41.13;21.05;;;153.90;2252.80;;;;;;5095152;28;20024;-63
2021/12/28 04:45:22;;;;;;;39.85;20.55;;;154.00;2252.80;;;;;;5094811;28;20072;-63
2021/12/28 04:47:48;;;;;;;65.85;37.30;;;154.00;2252.80;;;;;;5094029;28;20031;-62
2021/12/28 04:50:14;;;;;;;38.58;23.85;;;153.70;2252.80;;;;;;5093190;28;20353;-61
2021/12/28 04:52:41;;;;;;;39.35;21.48;;;128.90;2252.80;;;;;;5075621;28;20036;-64
2021/12/28 04:55:12;;;;;;;44.47;20.55;;;153.70;2252.80;;;;;;5094167;28;20035;-62
2021/12/28 04:57:38;;;;;;;46.28;20.10;;;153.80;2252.80;;;;;;5094260;28;20069;-65
2021/12/28 05:00:08;;;;;;;38.67;20.80;;;153.70;2252.80;;;;;;5094040;28;20029;-64
2021/12/28 05:02:34;;;;;;;40.90;23.52;;;128.90;2252.80;;;;;;5089638;28;20032;-62
2021/12/28 05:05:00;;;;;;;39.53;21.35;;;153.70;2252.80;;;;;;5093918;28;20427;-66
2021/12/28 05:07:27;;;;;;;38.88;21.25;;;153.80;2252.80;;;;;;5094112;28;20103;-63
2021/12/28 05:09:57;;;;;;;52.03;20.88;;;153.90;2252.80;;;;;;5094224;28;20024;-63
2021/12/28 05:12:27;;;;;;;42.05;23.80;;;153.80;2252.80;;;;;;5093454;28;20111;-61
2021/12/28 05:14:53;;;;;;;52.47;26.95;;;153.80;2252.80;;;;;;5075970;28;20173;-63
2021/12/28 05:17:19;;;;;;;46.97;27.63;;;153.90;2252.80;;;;;;5093667;28;20749;-66
2021/12/28 05:19:44;;;;;;;50.13;23.30;;;153.90;2252.80;;;;;;5093846;28;20028;-65
2021/12/28 05:22:12;;;;;;;42.53;23.75;;;153.90;2252.80;;;;;;5093926;28;20107;-65
2021/12/28 05:24:39;;;;;;;46.00;24.77;;;153.90;2252.80;;;;;;5092473;28;20040;-61
2021/12/28 05:27:05;;;;;;;52.67;25.42;;;153.80;2252.80;;;;;;5093328;28;20028;-64
2021/12/28 05:29:32;;;;;;;51.38;24.52;;;153.90;2252.80;;;;;;5074809;28;20050;-64
2021/12/28 05:31:58;;;;;;;42.58;22.42;;;153.60;2252.80;;;;;;5082634;28;20026;-61
2021/12/28 05:34:25;;;;;;;54.58;21.83;;;153.90;2252.80;;;;;;5073287;28;20382;-63
2021/12/28 05:36:50;;;;;;;56.90;21.40;;;154.00;2252.80;;;;;;5073453;28;20115;-60
2021/12/28 05:39:16;;;;;;;49.80;21.02;;;128.90;2252.80;;;;;;5073273;28;20494;-60
2021/12/28 05:41:44;;;;;;;48.85;23.98;;;128.70;2252.80;;;;;;5073067;28;20033;-61
2021/12/28 05:44:09;;;;;;;42.60;21.95;;;128.80;2252.80;;;;;;5072833;28;20020;-60
2021/12/28 05:46:35;;;;;;;38.13;20.45;;;128.80;2252.80;;;;;;5072607;28;20063;-63
2021/12/28 05:49:01;;;;;;;60.95;29.27;;;128.60;2252.80;;;;;;5072896;28;20091;-65
2021/12/28 05:51:27;;;;;;;56.28;26.05;;;128.50;2252.80;;;;;;5073185;28;20471;-61
2021/12/28 05:53:53;;;;;;;68.82;29.83;;;128.30;2252.80;;;;;;5072900;28;20027;-63
2021/12/28 05:56:19;;;;;;;54.70;26.83;;;128.50;2252.80;;;;;;5054665;28;20032;-62
2021/12/28 05:58:51;;;;;;;44.15;24.73;;;;;;;;;;5072631;28;20036;-66
2021/12/28 06:01:18;;;;;;;52.65;26.38;;;;;;;;;;5076935;28;20473;-66
2021/12/28 06:03:43;;;;;;;70.18;23.23;;;128.90;2252.80;;;;;;5091784;28;20377;-65
2021/12/28 06:06:09;;;;;;;52.17;25.13;;;128.90;2252.80;;;;;;5092946;28;20036;-65
2021/12/28 06:08:35;;;;;;;71.03;25.15;;;153.70;2252.80;;;;;;5092841;28;20434;-66
2021/12/28 06:11:03;;;;;;;79.60;28.17;;;153.70;2252.80;;;;;;5086972;28;20036;-62
2021/12/28 06:13:28;;;;;;;81.95;32.10;;;128.90;2252.80;;;;;;5072651;28;20066;-64
2021/12/28 06:15:55;;;;;;;63.42;35.55;;;128.80;2252.80;;;;;;5072571;28;20033;-64
2021/12/28 06:18:21;;;;;;;68.25;30.52;;;128.70;2252.80;;;;;;5072470;28;20032;-64
2021/12/28 06:20:47;;;;;;;66.80;29.98;;;153.60;2252.80;;;;;;5072681;28;20107;-66
2021/12/28 06:23:12;;;;;;;71.63;32.70;;;153.80;2252.80;;;;;;5072495;28;20430;-65
2021/12/28 06:25:39;;;;;;;114.15;52.03;;;128.90;2252.80;;;;;;5071999;28;20051;-62
2021/12/28 06:28:05;;;;;;;83.97;37.92;;;128.90;2252.80;;;;;;5072680;28;20375;-61
2021/12/28 06:30:31;;;;;;;79.28;32.67;;;153.60;2252.80;;;;;;5072281;28;20111;-64
2021/12/28 06:32:57;;;;;;;71.20;34.03;;;128.80;2252.80;;;;;;5091070;28;20020;-64
2021/12/28 06:35:23;;;;;;;63.45;32.75;;;128.80;2252.80;;;;;;5092833;28;20085;-62
2021/12/28 06:37:48;;;;;;;80.55;38.50;;;153.70;2252.80;;;;;;5092694;28;20099;-65
2021/12/28 06:40:14;;;;;;;95.28;40.90;;;153.70;2252.80;;;;;;5092713;28;20028;-65
2021/12/28 06:42:41;;;;;;;86.35;42.15;;;153.70;2252.80;;;;;;5092708;28;20482;-64
2021/12/28 06:45:07;;;;;;;85.30;42.10;;;;;;;;;;5092261;28;20047;-63
2021/12/28 06:47:33;;;;;;;106.20;45.25;;;;;;;;;;5092488;28;20072;-62
2021/12/28 06:49:59;;;;;;;99.65;53.72;;;;;;;;;;5092511;28;20028;-63
2021/12/28 06:52:25;;;;;;;92.85;42.85;;;;;;;;;;5092524;28;20103;-60
2021/12/28 06:54:51;;;;;;;80.03;39.25;;;128.90;2252.80;;;;;;5092453;28;20039;-64
2021/12/28 06:57:17;;;;;;;97.30;45.60;;;153.60;2252.80;;;;;;5092544;28;20032;-62
2021/12/28 06:59:44;;;;;;;122.45;67.82;;;128.90;2252.80;;;;;;5092258;28;20032;-61
2021/12/28 07:02:11;;;;;;;97.18;42.88;;;153.70;2252.80;;;;;;5092140;28;20031;-67
2021/12/28 07:04:37;;;;;;;121.45;58.47;;;;;;;;;;5092296;28;20020;-62
2021/12/28 07:07:04;;;;;;;55.35;30.80;;;154.00;2252.80;;;;;;5092277;28;20028;-61
2021/12/28 07:09:30;;;;;;;52.25;28.42;;;154.10;2252.80;;;;;;5092468;28;20020;-66
2021/12/28 07:11:56;;;;;;;85.22;51.20;;;154.10;2252.80;;;;;;5092958;28;20119;-61
2021/12/28 07:14:21;;;;;;;102.35;61.13;;;154.00;2252.80;;;;;;5095862;28;20103;-66
2021/12/28 07:16:47;;;;;;;58.30;35.20;;;154.10;2252.80;;;;;;5095044;28;20052;-63
2021/12/28 07:19:13;;;;;;;50.97;31.13;;;154.10;2252.80;;;;;;5095916;28;20036;-65
2021/12/28 07:21:40;;;;;;;613.35;341.50;;;154.20;2252.80;;;;;;5095023;28;20024;-60
2021/12/28 07:24:07;;;;;;;73.10;41.67;;;154.20;2252.80;;;;;;5075582;28;20031;-61
2021/12/28 07:26:33;;;;;;;91.40;49.83;;;154.10;2252.80;;;;;;5075665;28;20531;-62
2021/12/28 07:28:59;;;;;;;78.18;39.97;;;154.00;2252.80;;;;;;5075486;28;20023;-66
2021/12/28 07:31:26;;;;;;;90.47;52.78;;;153.90;2252.80;;;;;;5075569;28;20016;-65
2021/12/28 07:33:51;;;;;;;75.13;37.92;;;153.90;2252.80;;;;;;5075541;28;20024;-62
2021/12/28 07:36:18;;;;;;;111.78;60.63;;;154.10;2252.80;;;;;;5075647;28;20031;-61
2021/12/28 07:38:43;;;;;;;67.40;37.83;;;153.90;2252.80;;;;;;5075509;28;20028;-61
2021/12/28 07:41:09;;;;;;;56.63;27.50;;;153.90;2252.80;;;;;;5075720;28;20020;-61
2021/12/28 07:43:35;;;;;;;46.63;27.25;;;153.90;2252.80;;;;;;5076072;28;20415;-67
2021/12/28 07:46:01;;;;;;;71.30;36.72;;;153.80;2252.80;;;;;;5075215;28;20528;-61
2021/12/28 07:48:27;;;;;;;57.92;30.85;;;153.90;2252.80;;;;;;5075467;28;20094;-61
2021/12/28 07:50:53;;;;;;;55.15;28.23;;;154.10;2252.80;;;;;;5075359;28;20060;-61
2021/12/28 07:53:19;;;;;;;47.13;26.63;;;154.10;2252.80;;;;;;5075395;28;20398;-61
2021/12/28 07:55:44;;;;;;;55.35;34.10;;;154.00;2252.80;;;;;;5075513;28;20104;-61
2021/12/28 07:58:10;;;;;;;45.83;26.38;;;154.10;2252.80;;;;;;5075266;28;20470;-62
2021/12/28 08:00:36;;;;;;;66.50;40.33;;;154.10;2252.80;;;;;;5074956;28;20040;-62
2021/12/28 08:03:04;;;;;;;115.00;61.92;;;154.30;2252.80;;;;;;5074674;28;20028;-61
2021/12/28 08:05:31;;;;;;;58.78;31.80;;;154.30;2252.80;;;;;;5075064;28;20035;-61
2021/12/28 08:07:57;;;;;;;153.95;100.25;;;154.30;2252.80;;;;;;5075302;28;20021;-61
2021/12/28 08:10:23;;;;;;;73.43;43.13;;;154.20;2252.80;;;;;;5074996;28;20386;-61
2021/12/28 08:12:51;;;;;;;44.95;24.40;;;154.10;2252.80;;;;;;5074936;28;20017;-61
2021/12/28 08:15:17;;;;;;;42.15;26.95;;;154.00;2252.80;;;;;;5074922;28;20025;-61
2021/12/28 08:17:43;;;;;;;55.20;31.83;;;154.20;2252.80;;;;;;5074785;28;20093;-61
2021/12/28 08:20:11;;;;;;;44.13;27.63;;;154.40;2252.80;;;;;;5074700;28;20031;-61
2021/12/28 08:22:38;;;;;;;54.92;33.17;;;154.30;2252.80;;;;;;5074477;28;20029;-61
2021/12/28 08:25:06;;;;;;;87.57;54.63;;;153.90;2252.80;;;;;;5074376;28;20123;-61
2021/12/28 08:27:32;;;;;;;54.28;30.63;;;153.80;2252.80;;;;;;5074662;28;20443;-62
2021/12/28 08:29:58;;;;;;;46.40;28.83;;;154.00;2252.80;;;;;;5074553;28;20390;-61
2021/12/28 08:32:23;;;;;;;55.25;32.25;;;154.10;2252.80;;;;;;5074446;28;20024;-61
2021/12/28 08:34:49;;;;;;;72.20;47.42;;;154.00;2252.80;;;;;;5074415;28;20028;-62
2021/12/28 08:37:15;;;;;;;63.75;38.92;;;;;;;;;;5074587;28;20032;-62
2021/12/28 08:39:42;;;;;;;57.95;35.97;;;153.70;2252.80;;;;;;5074128;28;20063;-59
2021/12/28 08:42:08;;;;;;;66.43;39.65;;;153.70;2252.80;;;;;;5073988;28;20065;-60
2021/12/28 08:44:35;;;;;;;68.10;39.15;;;153.60;2252.80;;;;;;5073668;28;20024;-60
2021/12/28 08:47:01;;;;;;;64.18;40.78;;;153.80;2252.80;;;;;;5073789;28;20064;-60
2021/12/28 08:49:27;;;;;;;60.83;38.92;;;153.80;2252.80;;;;;;5055764;28;20111;-66
2021/12/28 08:51:53;;;;;;;75.57;45.78;;;;;;;;;;5073639;28;20391;-60
2021/12/28 08:54:20;;;;;;;85.93;50.38;;;;;;;;;;5073690;28;20470;-60
2021/12/28 08:56:46;;;;;;;84.25;52.17;;;;;;;;;;5073732;28;20032;-61
2021/12/28 08:59:13;;;;;;;85.78;48.65;;;;;;;;;;5073595;28;20048;-63
2021/12/28 09:01:39;;;;;;;98.18;59.00;;;;;;;;;;5073540;28;20029;-60
2021/12/28 09:04:05;;;;;;;115.40;72.78;;;;;;;;;;5073364;28;20012;-60
2021/12/28 09:06:32;;;;;;;87.13;54.05;;;;;;;;;;5073405;28;20039;-61
2021/12/28 09:08:58;;;;;;;96.82;55.95;;;;;;;;;;5073583;28;20024;-61
2021/12/28 09:11:24;;;;;;;94.47;57.58;;;;;;;;;;5073528;28;20482;-61
2021/12/28 09:13:50;;;;;;;95.05;56.28;;;;;;;;;;5073197;28;20047;-60
2021/12/28 09:16:16;;;;;;;97.47;56.63;;;;;;;;;;5073506;28;20031;-61
2021/12/28 09:18:42;;;;;;;103.22;59.30;;;;;;;;;;5073345;28;20415;-61
2021/12/28 09:21:09;;;;;;;122.32;71.03;;;;;;;;;;5073527;28;20416;-60
2021/12/28 09:23:35;;;;;;;118.20;70.80;;;;;;;;;;5073268;28;20047;-61
2021/12/28 09:26:01;;;;;;;115.55;66.63;;;;;;;;;;5054554;28;20498;-65
2021/12/28 09:28:27;;;;;;;134.45;82.30;;;;;;;;;;5073092;28;20028;-60
2021/12/28 09:30:53;;;;;;;99.15;60.03;;;;;;;;;;5073193;28;20347;-61
2021/12/28 09:33:19;;;;;;;110.78;65.05;;;;;;;;;;5073057;28;20078;-61
2021/12/28 09:35:46;;;;;;;123.40;72.97;;;;;;;;;;5072338;28;20133;-66
2021/12/28 09:38:12;;;;;;;123.93;76.10;;;;;;;;;;5055332;28;20048;-62
2021/12/28 09:40:38;;;;;;;147.18;84.90;;;;;;;;;;5072889;28;20024;-61
2021/12/28 09:43:06;;;;;;;124.30;73.70;;;;;;;;;;5072819;28;20028;-66
2021/12/28 09:45:33;;;;;;;123.00;72.07;;;;;;;;;;5072684;28;20056;-62
2021/12/28 09:47:59;;;;;;;120.10;71.82;;;;;;;;;;5072455;28;20501;-61
2021/12/28 09:50:25;;;;;;;119.75;67.38;;;;;;;;;;5072764;28;20074;-65
2021/12/28 09:52:51;;;;;;;147.38;86.35;;;;;;;;;;5072462;28;20556;-62
2021/12/28 09:55:19;;;;;;;141.90;80.82;;;;;;;;;;5072460;28;20354;-61
2021/12/28 09:57:45;;;;;;;155.05;89.93;;;;;;;;;;5072379;28;20020;-61
2021/12/28 10:00:12;;;;;;;146.88;86.75;;;;;;;;;;5072467;28;20028;-63
2021/12/28 10:02:39;;;;;;;184.25;104.47;;;;;;;;;;5072365;28;20085;-62
2021/12/28 10:05:12;;;;;;;139.85;79.68;;;;;;;;;;5072462;28;20056;-61
2021/12/28 10:07:45;;;;;;;133.57;79.15;;;;;;;;;;5054017;28;20067;-61
2021/12/28 10:10:12;;;;;;;138.73;79.60;;;;;;;;;;5072232;28;20050;-65
2021/12/28 10:12:46;;;;;;;125.10;71.85;;;;;;;;;;5072518;28;20024;-62
2021/12/28 10:15:17;;;;;;;125.63;69.65;;;;;;;;;;5072384;28;20035;-62
2021/12/28 10:17:44;;;;;;;132.45;77.95;;;;;;;;;;5072456;28;20056;-66
2021/12/28 10:20:11;;;;;;;125.13;68.25;;;;;;;;;;5072326;28;20027;-61
2021/12/28 10:22:44;;;;;;;131.57;74.75;;;;;;;;;;5072298;28;20028;-61
2021/12/28 10:25:12;;;;;;;140.40;79.80;;;;;;;;;;5071931;28;20610;-62
2021/12/28 10:28:11;;;;;;;211.00;115.32;;;179.50;2252.80;;;;;;5072102;28;20020;-61
2021/12/28 10:30:40;;;;;;;147.52;85.10;;;179.70;2252.80;;;;;;5010372;28;20037;-60
2021/12/28 10:33:10;;;;;;;162.95;92.82;;;179.30;2252.80;;;;;;5010206;28;20480;-61
2021/12/28 10:35:57;;;;;;;160.90;91.43;;;179.30;2252.80;;;;;;5010484;28;20042;-61
2021/12/28 10:38:26;;;;;;;158.65;90.32;;;179.20;2252.80;;;;;;5010494;28;20507;-62
2021/12/28 10:41:01;;;;;;;174.90;102.35;;;154.40;2252.80;;;;;;5010192;28;20044;-62
2021/12/28 10:43:31;;;;;;;192.75;116.32;;;179.20;2252.80;;;;;;5010454;28;20021;-64
2021/12/28 10:46:01;;;;;;;191.93;108.28;;;179.30;2252.80;;;;;;5011020;28;20038;-61
2021/12/28 10:48:40;;;;;;;190.05;105.75;;;179.20;2252.80;;;;;;5014062;28;20045;-61
2021/12/28 10:51:21;;;;;;;299.83;161.38;;;154.50;2252.80;;;;;;5013834;28;20436;-66
2021/12/28 10:56:58;;;;;;;191.68;108.72;;;179.80;2252.80;;;;;;5013989;28;20026;-61
2021/12/28 10:59:25;;;;;;;164.40;92.80;;;;;;;;;;5014163;28;20409;-67
2021/12/28 11:01:52;;;;;;;150.48;86.88;;;;;;;;;;5013892;28;20127;-62
2021/12/28 11:04:19;;;;;;;155.38;90.13;;;180.00;2252.80;;;;;;5013954;28;20132;-62
2021/12/28 11:06:48;;;;;;;166.35;95.18;;;179.90;2252.80;;;;;;5038034;28;20044;-61
2021/12/28 11:09:23;;;;;;;157.35;91.05;;;180.00;2252.80;;;;;;5075700;28;20108;-63
2021/12/28 11:11:51;;;;;;;166.50;91.88;;;180.10;2252.80;;;;;;5075369;28;20482;-62
2021/12/28 11:14:25;;;;;;;166.77;92.85;;;180.00;2252.80;;;;;;5075678;28;20031;-66
2021/12/28 11:16:54;;;;;;;166.40;98.28;;;180.00;2252.80;;;;;;5075582;28;20043;-61
2021/12/28 11:19:26;;;;;;;164.18;93.22;;;180.10;2252.80;;;;;;5075462;28;20222;-62
2021/12/28 11:21:57;;;;;;;184.52;100.10;;;180.10;2252.80;;;;;;5075453;28;20483;-61
2021/12/28 11:24:36;;;;;;;187.77;104.03;;;180.10;2252.80;;;;;;5075072;28;20494;-62
2021/12/28 11:27:04;;;;;;;190.80;109.63;;;180.10;2252.80;;;;;;5075173;28;20056;-62
2021/12/28 11:29:35;;;;;;;209.98;119.53;;;180.00;2252.80;;;;;;5075267;28;20359;-63
2021/12/28 11:32:17;;;;;;;213.77;125.22;;;180.10;2252.80;;;;;;5075287;28;20059;-63
2021/12/28 11:34:43;;;;;;;187.90;106.43;;;204.80;2252.80;;;;;;5074943;28;20048;-63
2021/12/28 11:37:12;;;;;;;210.90;118.28;;;204.90;2252.80;;;;;;5074656;28;20112;-63
2021/12/28 11:39:51;;;;;;;215.35;118.03;;;205.00;2252.80;;;;;;5075110;28;20447;-61
2021/12/28 11:42:19;;;;;;;263.17;141.55;;;205.10;2252.80;;;;;;5075332;28;20021;-66
2021/12/28 11:44:45;;;;;;;248.63;138.30;;;205.00;2252.80;;;;;;5074912;28;20159;-62
2021/12/28 11:47:14;;;;;;;237.10;135.10;;;204.90;2252.80;;;;;;5074941;28;20108;-62
2021/12/28 11:49:41;;;;;;;234.55;132.80;;;204.80;2252.80;;;;;;5074666;28;20482;-64
2021/12/28 11:52:11;;;;;;;249.57;140.20;;;204.90;2252.80;;;;;;5075060;28;20398;-63
2021/12/28 11:54:40;;;;;;;208.43;115.70;;;204.90;2252.80;;;;;;5075320;28;20048;-61
2021/12/28 11:57:12;;;;;;;221.48;126.57;;;205.00;2252.80;;;;;;5074471;28;20029;-61
2021/12/28 11:59:40;;;;;;;211.20;118.32;;;205.00;2252.80;;;;;;5074618;28;20029;-62
2021/12/28 12:02:13;;;;;;;229.90;125.78;;;204.90;2252.80;;;;;;5074384;28;20027;-63
2021/12/28 12:04:47;;;;;;;226.85;122.45;;;204.90;2252.80;;;;;;5074485;28;20032;-61
2021/12/28 12:07:16;;;;;;;198.35;109.57;;;204.90;2252.80;;;;;;5074719;28;20036;-62
2021/12/28 12:10:16;;;;;;;203.05;110.45;;;204.90;2252.80;;;;;;5074691;28;20425;-66
2021/12/28 12:12:53;;;;;;;220.32;117.53;;;204.80;2252.80;;;;;;5012246;28;20532;-66
2021/12/28 12:15:22;;;;;;;234.23;132.52;;;204.90;2252.80;;;;;;4995814;28;20026;-66
2021/12/28 12:17:50;;;;;;;218.07;122.78;;;204.90;2252.80;;;;;;5012638;28;20044;-66
2021/12/28 12:20:16;;;;;;;231.07;125.38;;;204.90;2252.80;;;;;;5012482;28;20136;-65
2021/12/28 12:22:49;;;;;;;186.77;103.78;;;205.00;2252.80;;;;;;5012640;28;20421;-65
2021/12/28 12:25:33;;;;;;;227.40;120.47;;;205.10;2252.80;;;;;;5011988;28;20038;-61
2021/12/28 12:28:05;;;;;;;205.90;110.72;;;205.10;2252.80;;;;;;5012302;28;20054;-61